createdAt,value
2023-09-18T00:01:03.990Z,64.20
2023-09-18T00:03:31.246Z,64.21
2023-09-18T00:05:58.498Z,64.27
2023-09-18T00:08:25.816Z,64.25
2023-09-18T00:10:56.858Z,64.38
2023-09-18T00:13:24.897Z,64.00
2023-09-18T00:15:56.619Z,64.36
2023-09-18T00:18:23.901Z,64.18
2023-09-18T00:20:53.038Z,63.97
2023-09-18T00:23:20.357Z,64.38
2023-09-18T00:25:47.624Z,64.08
2023-09-18T00:28:14.813Z,64.10
2023-09-18T00:30:49.880Z,64.01
2023-09-18T00:33:17.389Z,63.96
2023-09-18T00:35:51.540Z,64.21
2023-09-18T00:38:18.984Z,63.89
2023-09-18T00:40:46.329Z,64.05
2023-09-18T00:43:13.821Z,64.40
2023-09-18T00:45:43.374Z,63.96
2023-09-18T00:48:11.074Z,64.34
2023-09-18T00:50:39.292Z,64.01
2023-09-18T00:53:09.635Z,64.05
2023-09-18T00:55:38.476Z,64.06
2023-09-18T00:58:06.909Z,64.33
2023-09-18T01:00:34.129Z,63.96
2023-09-18T01:03:03.207Z,64.00
2023-09-18T01:05:34.553Z,63.96
2023-09-18T01:08:01.908Z,64.46
2023-09-18T01:10:37.910Z,64.14
2023-09-18T01:13:14.493Z,64.11
2023-09-18T01:15:47.644Z,64.27
2023-09-18T01:18:15.005Z,64.17
2023-09-18T01:20:42.210Z,64.41
2023-09-18T01:23:10.070Z,64.37
2023-09-18T01:25:37.296Z,64.46
2023-09-18T01:28:04.611Z,64.49
2023-09-18T01:30:31.832Z,64.03
2023-09-18T01:32:59.964Z,64.27
2023-09-18T01:35:30.980Z,64.52
2023-09-18T01:37:59.198Z,64.45
2023-09-18T01:40:26.758Z,64.09
2023-09-18T01:42:54.384Z,64.03
2023-09-18T01:45:21.581Z,64.48
2023-09-18T01:47:48.876Z,64.37
2023-09-18T01:50:16.103Z,64.32
2023-09-18T01:52:43.338Z,64.16
2023-09-18T01:55:10.924Z,64.34
2023-09-18T01:57:38.185Z,64.59
2023-09-18T02:00:09.520Z,64.32
2023-09-18T02:02:50.083Z,64.61
2023-09-18T02:05:25.225Z,64.26
2023-09-18T02:07:52.749Z,64.22
2023-09-18T02:10:20.951Z,64.36
2023-09-18T02:12:48.369Z,64.13
2023-09-18T02:15:17.781Z,64.38
2023-09-18T02:17:45.333Z,64.31
2023-09-18T02:20:13.332Z,64.38
2023-09-18T02:22:40.979Z,64.49
2023-09-18T02:25:08.715Z,64.43
2023-09-18T02:27:35.912Z,64.20
2023-09-18T02:30:03.141Z,64.36
2023-09-18T02:32:31.134Z,64.52
2023-09-18T02:34:58.538Z,64.65
2023-09-18T02:37:26.819Z,64.42
2023-09-18T02:39:53.992Z,64.48
2023-09-18T02:42:21.258Z,64.63
2023-09-18T02:44:48.586Z,64.42
2023-09-18T02:47:15.857Z,64.62
2023-09-18T02:49:43.077Z,64.71
2023-09-18T02:52:10.274Z,64.39
2023-09-18T02:54:37.617Z,64.46
2023-09-18T02:57:04.886Z,64.48
2023-09-18T02:59:33.236Z,64.38
2023-09-18T03:02:00.673Z,64.40
2023-09-18T03:04:28.044Z,64.75
2023-09-18T03:06:55.816Z,64.51
2023-09-18T03:09:23.000Z,64.83
2023-09-18T03:11:50.255Z,64.84
2023-09-18T03:14:17.589Z,64.44
2023-09-18T03:16:45.391Z,64.47
2023-09-18T03:19:12.645Z,64.79
2023-09-18T03:21:39.868Z,64.38
2023-09-18T03:24:07.374Z,64.59
2023-09-18T03:26:34.669Z,64.59
2023-09-18T03:29:05.085Z,64.46
2023-09-18T03:31:32.375Z,64.64
2023-09-18T03:33:59.605Z,64.59
2023-09-18T03:36:26.791Z,64.56
2023-09-18T03:38:54.269Z,64.80
2023-09-18T03:41:22.224Z,64.60
2023-09-18T03:43:50.339Z,64.69
2023-09-18T03:46:17.605Z,64.69
2023-09-18T03:48:44.885Z,64.55
2023-09-18T03:51:16.781Z,64.61
2023-09-18T03:53:44.160Z,64.93
2023-09-18T03:56:11.472Z,64.96
2023-09-18T03:58:38.791Z,64.64
2023-09-18T04:01:06.177Z,64.72
2023-09-18T04:03:33.749Z,64.82
2023-09-18T04:06:00.996Z,64.79
2023-09-18T04:08:28.316Z,64.94
2023-09-18T04:10:57.050Z,65.06
2023-09-18T04:13:24.277Z,64.61
2023-09-18T04:15:52.844Z,64.73
2023-09-18T04:18:20.161Z,64.73
2023-09-18T04:20:47.401Z,64.88
2023-09-18T04:23:25.869Z,65.12
2023-09-18T04:25:54.707Z,64.69
2023-09-18T04:28:23.492Z,64.63
2023-09-18T04:30:50.782Z,65.23
2023-09-18T04:33:18.748Z,64.93
2023-09-18T04:35:46.517Z,65.30
2023-09-18T04:38:16.422Z,65.65
2023-09-18T04:40:43.875Z,65.73
2023-09-18T04:43:11.107Z,65.76
2023-09-18T04:45:38.308Z,65.75
2023-09-18T04:48:07.016Z,66.06
2023-09-18T04:50:35.229Z,66.15
2023-09-18T04:53:02.828Z,68.34
2023-09-18T04:55:30.080Z,69.71
2023-09-18T04:57:59.159Z,70.71
2023-09-18T05:00:27.428Z,70.90
2023-09-18T05:02:55.193Z,72.04
2023-09-18T05:05:22.741Z,72.91
2023-09-18T05:07:50.025Z,74.19
2023-09-18T05:10:17.659Z,75.81
2023-09-18T05:12:44.862Z,74.90
2023-09-18T05:15:13.914Z,71.92
2023-09-18T05:17:44.974Z,70.26
2023-09-18T05:20:15.203Z,69.79
2023-09-18T05:22:43.232Z,70.94
2023-09-18T05:25:11.369Z,72.42
2023-09-18T05:27:45.606Z,71.34
2023-09-18T05:30:16.057Z,70.05
2023-09-18T05:32:44.648Z,69.69
2023-09-18T05:35:13.868Z,68.71
2023-09-18T05:37:45.073Z,68.62
2023-09-18T05:40:14.389Z,68.59
2023-09-18T05:42:45.097Z,68.26
2023-09-18T05:45:13.395Z,68.95
2023-09-18T05:47:41.071Z,70.03
2023-09-18T05:50:09.818Z,70.07
2023-09-18T05:52:37.291Z,70.86
2023-09-18T05:55:07.556Z,70.38
2023-09-18T05:57:38.087Z,70.54
2023-09-18T06:00:06.319Z,70.34
2023-09-18T06:02:33.747Z,71.50
2023-09-18T06:05:02.227Z,71.76
2023-09-18T06:07:29.854Z,71.97
2023-09-18T06:09:58.347Z,72.82
2023-09-18T06:12:26.039Z,71.68
2023-09-18T06:14:53.296Z,71.14
2023-09-18T06:17:20.608Z,72.06
2023-09-18T06:19:47.933Z,71.82
2023-09-18T06:22:15.714Z,72.59
2023-09-18T06:24:43.373Z,72.41
2023-09-18T06:27:12.152Z,72.30
2023-09-18T06:29:40.248Z,72.10
2023-09-18T06:32:07.847Z,72.59
2023-09-18T06:34:35.412Z,72.52
2023-09-18T06:37:04.578Z,73.54
2023-09-18T06:39:31.901Z,73.07
2023-09-18T06:41:59.143Z,73.20
2023-09-18T06:44:26.394Z,72.65
2023-09-18T06:46:54.613Z,72.72
2023-09-18T06:49:21.869Z,70.24
2023-09-18T06:51:49.111Z,67.29
2023-09-18T06:54:16.395Z,64.62
2023-09-18T06:56:45.568Z,63.13
2023-09-18T06:59:13.246Z,61.25
2023-09-18T07:01:42.939Z,58.60
2023-09-18T07:04:10.502Z,57.26
2023-09-18T07:06:38.253Z,55.37
2023-09-18T07:09:07.895Z,52.73
2023-09-18T07:11:35.883Z,51.42
2023-09-18T07:14:07.169Z,50.99
2023-09-18T07:16:35.264Z,50.63
2023-09-18T07:19:05.737Z,50.19
2023-09-18T07:21:33.215Z,50.42
2023-09-18T07:24:00.560Z,51.83
2023-09-18T07:26:27.827Z,52.79
2023-09-18T07:28:55.620Z,51.47
2023-09-18T07:31:23.100Z,52.17
2023-09-18T07:33:50.413Z,52.51
2023-09-18T07:36:17.668Z,53.87
2023-09-18T07:38:44.953Z,55.26
2023-09-18T07:41:12.748Z,56.62
2023-09-18T07:43:41.069Z,57.37
2023-09-18T07:46:08.341Z,57.69
2023-09-18T07:48:36.242Z,56.99
2023-09-18T07:51:03.592Z,56.16
2023-09-18T07:53:30.925Z,55.26
2023-09-18T07:56:00.184Z,55.42
2023-09-18T07:58:29.248Z,54.76
2023-09-18T08:00:59.982Z,54.98
2023-09-18T08:03:27.880Z,53.45
2023-09-18T08:05:55.177Z,51.98
2023-09-18T08:08:24.591Z,50.15
2023-09-18T08:10:52.376Z,49.00
2023-09-18T08:13:20.884Z,45.47
2023-09-18T08:15:48.399Z,45.30
2023-09-18T08:18:18.636Z,43.81
2023-09-18T08:20:46.500Z,46.06
2023-09-18T08:23:14.049Z,45.69
2023-09-18T08:25:41.851Z,46.34
2023-09-18T08:28:10.133Z,46.56
2023-09-18T08:30:38.723Z,46.48
2023-09-18T08:33:06.356Z,45.73
2023-09-18T08:35:34.125Z,47.09
2023-09-18T08:38:01.762Z,47.59
2023-09-18T08:40:29.129Z,50.70
2023-09-18T08:42:57.714Z,53.33
2023-09-18T08:45:29.036Z,54.88
2023-09-18T08:47:56.888Z,55.90
2023-09-18T08:50:26.044Z,55.99
2023-09-18T08:52:53.743Z,56.43
2023-09-18T08:55:21.178Z,57.25
2023-09-18T08:57:48.785Z,57.29
2023-09-18T09:00:18.449Z,58.30
2023-09-18T09:02:46.278Z,58.46
2023-09-18T09:05:15.013Z,58.53
2023-09-18T09:07:42.271Z,58.86
2023-09-18T09:10:09.576Z,58.73
2023-09-18T09:12:55.787Z,58.81
2023-09-18T09:15:47.518Z,59.27
2023-09-18T09:18:18.080Z,59.42
2023-09-18T09:21:00.606Z,59.68
2023-09-18T09:23:29.141Z,59.80
2023-09-18T09:26:14.957Z,59.76
2023-09-18T09:28:44.326Z,60.05
2023-09-18T09:31:12.170Z,60.25
2023-09-18T09:33:40.536Z,60.28
2023-09-18T09:36:07.957Z,60.40
2023-09-18T09:38:35.934Z,60.41
2023-09-18T09:41:03.783Z,60.45
2023-09-18T09:43:33.561Z,60.42
2023-09-18T09:46:01.520Z,60.46
2023-09-18T09:48:31.648Z,60.57
2023-09-18T09:51:04.285Z,60.89
2023-09-18T09:53:52.090Z,60.63
2023-09-18T09:56:20.396Z,60.85
2023-09-18T09:59:03.393Z,60.57
2023-09-18T10:01:32.453Z,60.84
2023-09-18T10:04:01.570Z,60.85
2023-09-18T10:06:31.266Z,60.87
2023-09-18T10:08:58.592Z,61.14
2023-09-18T10:11:27.968Z,61.43
2023-09-18T10:14:01.729Z,61.49
2023-09-18T10:16:32.572Z,61.51
2023-09-18T10:19:15.907Z,62.31
2023-09-18T10:21:49.308Z,62.65
2023-09-18T10:24:25.203Z,62.85
2023-09-18T10:26:57.201Z,63.46
2023-09-18T10:29:25.414Z,63.52
2023-09-18T10:31:54.791Z,63.63
2023-09-18T10:34:23.546Z,63.30
2023-09-18T10:36:52.899Z,63.94
2023-09-18T10:39:24.590Z,63.83
2023-09-18T10:41:54.576Z,63.67
2023-09-18T10:44:21.999Z,63.77
2023-09-18T10:46:50.659Z,63.97
2023-09-18T10:49:18.600Z,63.81
2023-09-18T10:51:46.974Z,63.80
2023-09-18T10:54:21.290Z,64.06
2023-09-18T10:56:49.141Z,64.16
2023-09-18T10:59:18.266Z,64.89
2023-09-18T11:01:47.721Z,64.24
2023-09-18T11:04:15.931Z,64.42
2023-09-18T11:06:55.592Z,64.87
2023-09-18T11:09:27.600Z,63.37
2023-09-18T11:12:05.317Z,61.74
2023-09-18T11:14:59.286Z,61.18
2023-09-18T11:17:37.567Z,60.97
2023-09-18T11:20:18.613Z,61.06
2023-09-18T11:23:19.525Z,61.04
2023-09-18T11:25:48.583Z,60.71
2023-09-18T11:28:26.499Z,60.95
2023-09-18T11:31:02.456Z,60.74
2023-09-18T11:33:34.142Z,60.91
2023-09-18T11:36:13.605Z,60.95
2023-09-18T11:38:59.729Z,60.30
2023-09-18T11:41:29.357Z,59.90
2023-09-18T11:44:18.129Z,60.52
2023-09-18T11:46:49.942Z,60.66
2023-09-18T11:49:23.772Z,60.86
2023-09-18T11:51:52.325Z,61.15
2023-09-18T11:54:20.283Z,61.20
2023-09-18T11:56:47.604Z,60.94
2023-09-18T11:59:14.841Z,60.54
2023-09-18T12:01:42.158Z,60.76
2023-09-18T12:04:10.244Z,60.65
2023-09-18T12:06:39.261Z,60.74
2023-09-18T12:09:06.426Z,61.04
2023-09-18T12:11:43.123Z,61.28
2023-09-18T12:14:10.523Z,61.52
2023-09-18T12:16:41.276Z,61.84
2023-09-18T12:19:09.342Z,61.81
2023-09-18T12:21:43.564Z,61.97
2023-09-18T12:24:26.248Z,62.43
2023-09-18T12:26:54.742Z,62.59
2023-09-18T12:29:22.465Z,62.42
2023-09-18T12:31:51.442Z,62.03
2023-09-18T12:34:27.001Z,61.91
2023-09-18T12:36:54.222Z,61.77
2023-09-18T12:39:22.759Z,61.75
2023-09-18T12:41:50.529Z,62.24
2023-09-18T12:44:18.368Z,62.15
2023-09-18T12:46:46.172Z,62.12
2023-09-18T12:49:21.055Z,62.46
2023-09-18T12:52:07.681Z,62.45
2023-09-18T12:54:57.236Z,62.75
2023-09-18T12:57:24.441Z,63.51
2023-09-18T12:59:53.384Z,63.50
2023-09-18T13:02:20.862Z,63.55
2023-09-18T13:04:56.028Z,63.69
2023-09-18T13:07:24.564Z,63.27
2023-09-18T13:10:01.896Z,62.94
2023-09-18T13:12:42.196Z,63.05
2023-09-18T13:15:10.056Z,63.40
2023-09-18T13:17:48.686Z,63.47
2023-09-18T13:20:18.246Z,64.28
2023-09-18T13:22:50.381Z,64.86
2023-09-18T13:25:32.122Z,66.48
2023-09-18T13:27:59.388Z,67.60
2023-09-18T13:30:26.648Z,67.78
2023-09-18T13:33:09.641Z,69.06
2023-09-18T13:35:41.713Z,69.11
2023-09-18T13:38:09.892Z,69.98
2023-09-18T13:40:38.339Z,70.73
2023-09-18T13:43:10.158Z,70.49
2023-09-18T13:45:37.655Z,70.32
2023-09-18T13:48:07.901Z,70.60
2023-09-18T13:50:36.463Z,71.18
2023-09-18T13:53:05.128Z,71.65
2023-09-18T13:55:33.099Z,72.47
2023-09-18T13:58:00.721Z,72.98
2023-09-18T14:00:27.962Z,72.38
2023-09-18T14:02:55.425Z,72.13
2023-09-18T14:05:23.169Z,71.44
2023-09-18T14:07:50.728Z,72.27
2023-09-18T14:10:19.405Z,71.98
2023-09-18T14:12:47.175Z,71.79
2023-09-18T14:15:15.058Z,72.27
2023-09-18T14:17:42.357Z,72.00
2023-09-18T14:20:10.037Z,71.46
2023-09-18T14:22:37.551Z,71.63
2023-09-18T14:25:07.416Z,71.68
2023-09-18T14:27:36.208Z,71.22
2023-09-18T14:30:07.468Z,71.28
2023-09-18T14:32:37.683Z,71.26
2023-09-18T14:35:09.238Z,70.95
2023-09-18T14:37:37.431Z,70.35
2023-09-18T14:40:05.290Z,71.16
2023-09-18T14:42:32.748Z,71.55
2023-09-18T14:45:02.213Z,71.12
2023-09-18T14:47:30.776Z,70.64
2023-09-18T14:50:00.005Z,70.98
2023-09-18T14:52:27.423Z,70.67
2023-09-18T14:54:54.792Z,70.09
2023-09-18T14:57:22.276Z,70.48
2023-09-18T14:59:49.950Z,69.95
2023-09-18T15:02:18.955Z,69.62
2023-09-18T15:04:46.332Z,70.17
2023-09-18T15:07:14.044Z,70.46
2023-09-18T15:09:41.452Z,70.60
2023-09-18T15:12:09.856Z,71.29
2023-09-18T15:14:37.743Z,71.24
2023-09-18T15:17:05.264Z,71.57
2023-09-18T15:19:33.051Z,72.15
2023-09-18T15:22:02.391Z,72.58
2023-09-18T15:24:29.629Z,73.33
2023-09-18T15:26:57.965Z,73.60
2023-09-18T15:29:25.261Z,73.71
2023-09-18T15:31:52.581Z,73.76
2023-09-18T15:34:19.952Z,73.73
2023-09-18T15:36:47.258Z,74.54
2023-09-18T15:39:14.502Z,75.81
2023-09-18T15:41:41.928Z,76.55
2023-09-18T15:44:11.435Z,76.46
2023-09-18T15:46:38.785Z,76.44
2023-09-18T15:49:06.045Z,77.28
2023-09-18T15:51:33.688Z,76.97
2023-09-18T15:54:00.962Z,77.35
2023-09-18T15:56:28.251Z,77.67
2023-09-18T15:58:55.518Z,77.68
2023-09-18T16:01:22.778Z,78.03
2023-09-18T16:03:50.839Z,79.12
2023-09-18T16:06:19.391Z,80.32
2023-09-18T16:08:47.008Z,80.38
2023-09-18T16:11:16.391Z,79.89
2023-09-18T16:13:43.732Z,83.43
2023-09-18T16:16:11.161Z,86.16
2023-09-18T16:18:38.616Z,84.24
2023-09-18T16:21:06.709Z,84.16
2023-09-18T16:23:34.418Z,85.70
2023-09-18T16:26:01.687Z,85.04
2023-09-18T16:28:28.898Z,84.74
2023-09-18T16:30:56.141Z,84.73
2023-09-18T16:33:23.505Z,86.31
2023-09-18T16:35:51.001Z,87.63
2023-09-18T16:38:18.311Z,88.07
2023-09-18T16:40:45.559Z,89.20
2023-09-18T16:43:12.839Z,91.58
2023-09-18T16:45:43.434Z,89.83
2023-09-18T16:48:12.268Z,90.92
2023-09-18T16:50:39.873Z,92.69
2023-09-18T16:53:07.083Z,93.58
2023-09-18T16:55:34.323Z,92.57
2023-09-18T16:58:01.606Z,92.82
2023-09-18T17:00:29.263Z,93.31
2023-09-18T17:02:56.571Z,92.87
2023-09-18T17:05:23.940Z,94.82
2023-09-18T17:07:51.315Z,94.05
2023-09-18T17:10:18.687Z,92.05
2023-09-18T17:12:46.306Z,93.38
2023-09-18T17:15:13.571Z,92.20
2023-09-18T17:17:40.909Z,93.17
2023-09-18T17:20:09.598Z,92.71
2023-09-18T17:22:37.224Z,92.92
2023-09-18T17:25:06.579Z,93.30
2023-09-18T17:27:34.634Z,93.21
2023-09-18T17:30:02.565Z,92.70
2023-09-18T17:32:29.812Z,93.47
2023-09-18T17:34:57.042Z,92.77
2023-09-18T17:37:26.625Z,93.35
2023-09-18T17:39:54.112Z,94.33
2023-09-18T17:42:21.391Z,93.54
2023-09-18T17:44:49.054Z,93.97
2023-09-18T17:47:22.623Z,94.53
2023-09-18T17:49:50.387Z,95.47
2023-09-18T17:52:17.656Z,95.54
2023-09-18T17:54:44.902Z,94.33
2023-09-18T17:57:12.095Z,95.11
2023-09-18T17:59:39.806Z,95.06
2023-09-18T18:02:08.053Z,94.42
2023-09-18T18:04:37.224Z,93.23
2023-09-18T18:07:04.888Z,92.77
2023-09-18T18:09:32.221Z,92.61
2023-09-18T18:11:59.427Z,92.97
2023-09-18T18:14:28.711Z,91.82
2023-09-18T18:16:57.606Z,91.45
2023-09-18T18:19:24.894Z,91.53
2023-09-18T18:21:52.153Z,91.23
2023-09-18T18:24:19.362Z,90.79
2023-09-18T18:26:46.639Z,89.82
2023-09-18T18:29:13.875Z,90.10
2023-09-18T18:31:41.191Z,90.85
2023-09-18T18:34:08.450Z,90.36
2023-09-18T18:36:39.180Z,90.12
2023-09-18T18:39:06.634Z,89.63
2023-09-18T18:41:34.868Z,88.99
2023-09-18T18:44:02.194Z,88.31
2023-09-18T18:46:29.462Z,88.51
2023-09-18T18:48:56.684Z,88.82
2023-09-18T18:51:24.321Z,88.44
2023-09-18T18:53:52.003Z,88.68
2023-09-18T18:56:19.916Z,88.30
2023-09-18T18:58:49.760Z,87.96
2023-09-18T19:01:24.669Z,88.04
2023-09-18T19:03:54.579Z,87.98
2023-09-18T19:06:22.132Z,87.58
2023-09-18T19:08:49.445Z,88.04
2023-09-18T19:11:16.952Z,87.57
2023-09-18T19:13:44.842Z,87.59
2023-09-18T19:16:12.815Z,87.49
2023-09-18T19:18:41.106Z,86.75
2023-09-18T19:21:12.272Z,86.96
2023-09-18T19:23:40.496Z,86.75
2023-09-18T19:26:09.416Z,87.40
2023-09-18T19:28:36.973Z,88.25
2023-09-18T19:31:07.404Z,88.10
2023-09-18T19:33:39.532Z,87.98
2023-09-18T19:36:07.885Z,87.86
2023-09-18T19:38:37.570Z,87.79
2023-09-18T19:41:05.432Z,88.00
2023-09-18T19:43:33.175Z,88.16
2023-09-18T19:46:01.046Z,88.85
2023-09-18T19:48:29.241Z,88.55
2023-09-18T19:51:02.888Z,88.83
2023-09-18T19:53:30.276Z,88.50
2023-09-18T19:55:58.146Z,88.92
2023-09-18T19:58:25.724Z,87.84
2023-09-18T20:00:55.969Z,87.56
2023-09-18T20:03:24.198Z,87.92
2023-09-18T20:05:51.535Z,88.51
2023-09-18T20:08:20.716Z,88.54
2023-09-18T20:10:47.919Z,87.64
2023-09-18T20:13:15.108Z,87.54
2023-09-18T20:15:42.431Z,87.63
2023-09-18T20:18:09.767Z,87.00
2023-09-18T20:20:37.814Z,86.47
2023-09-18T20:23:05.162Z,86.47
2023-09-18T20:25:32.358Z,86.32
2023-09-18T20:27:59.621Z,86.56
2023-09-18T20:30:26.909Z,85.78
2023-09-18T20:32:54.204Z,85.75
2023-09-18T20:35:21.979Z,86.10
2023-09-18T20:37:49.549Z,85.55
2023-09-18T20:40:16.797Z,85.32
2023-09-18T20:42:44.197Z,85.27
2023-09-18T20:45:11.754Z,84.96
2023-09-18T20:47:39.392Z,85.08
2023-09-18T20:50:08.026Z,84.71
2023-09-18T20:52:37.735Z,83.67
2023-09-18T20:55:05.987Z,85.13
2023-09-18T20:57:33.241Z,84.58
2023-09-18T21:00:00.849Z,84.42
2023-09-18T21:02:28.162Z,84.47
2023-09-18T21:04:55.438Z,85.08
2023-09-18T21:07:22.646Z,86.59
2023-09-18T21:09:51.104Z,86.46
2023-09-18T21:12:21.781Z,87.34
2023-09-18T21:14:49.021Z,87.87
2023-09-18T21:17:16.380Z,88.35
2023-09-18T21:19:44.773Z,88.98
2023-09-18T21:22:12.134Z,88.58
2023-09-18T21:24:39.847Z,88.49
2023-09-18T21:27:07.782Z,89.08
2023-09-18T21:29:35.167Z,88.64
2023-09-18T21:32:04.665Z,88.61
2023-09-18T21:34:34.581Z,88.60
2023-09-18T21:37:01.816Z,88.92
2023-09-18T21:39:29.035Z,89.15
2023-09-18T21:41:56.381Z,89.52
2023-09-18T21:44:23.609Z,90.01
2023-09-18T21:46:50.805Z,89.46
2023-09-18T21:49:20.867Z,89.26
2023-09-18T21:51:48.052Z,89.87
2023-09-18T21:54:15.226Z,89.30
2023-09-18T21:56:42.507Z,89.44
2023-09-18T21:59:09.902Z,90.00
2023-09-18T22:01:38.770Z,90.37
2023-09-18T22:04:07.327Z,90.15
2023-09-18T22:06:34.872Z,90.04
2023-09-18T22:09:02.192Z,90.98
2023-09-18T22:11:32.357Z,91.25
2023-09-18T22:13:59.554Z,86.50
2023-09-18T22:16:26.777Z,84.25
2023-09-18T22:18:54.019Z,82.96
2023-09-18T22:21:23.634Z,81.75
2023-09-18T22:23:50.935Z,81.42
2023-09-18T22:26:18.160Z,80.80
2023-09-18T22:28:45.503Z,80.69
2023-09-18T22:31:19.952Z,80.34
2023-09-18T22:33:48.012Z,80.43
2023-09-18T22:36:25.415Z,79.76
2023-09-18T22:39:29.351Z,79.43
2023-09-18T22:41:56.747Z,79.40
2023-09-18T22:45:01.482Z,79.27
2023-09-18T22:48:06.126Z,79.06
2023-09-18T22:51:10.762Z,78.60
2023-09-18T22:53:37.897Z,78.56
2023-09-18T22:56:06.283Z,78.20
2023-09-18T22:58:33.534Z,78.05
2023-09-18T23:01:03.742Z,78.22
2023-09-18T23:03:31.500Z,78.22
2023-09-18T23:06:02.003Z,78.06
2023-09-18T23:08:30.024Z,77.82
2023-09-18T23:10:59.811Z,77.42
2023-09-18T23:13:29.421Z,77.71
2023-09-18T23:15:56.693Z,77.45
2023-09-18T23:18:24.110Z,77.16
2023-09-18T23:20:52.189Z,77.03
2023-09-18T23:23:19.408Z,77.12
2023-09-18T23:25:46.661Z,77.24
2023-09-18T23:28:16.262Z,77.13
2023-09-18T23:30:43.838Z,76.80
2023-09-18T23:33:15.749Z,76.94
2023-09-18T23:35:44.218Z,76.70
2023-09-18T23:38:11.699Z,76.57
2023-09-18T23:40:40.494Z,76.89
2023-09-18T23:43:09.887Z,76.66
2023-09-18T23:45:39.399Z,76.54
2023-09-18T23:48:14.601Z,76.10
2023-09-18T23:50:48.958Z,76.03
2023-09-18T23:53:20.414Z,76.22
2023-09-18T23:55:49.163Z,76.16
2023-09-18T23:58:17.853Z,75.80
